createdAt,value
2019-02-04T00:00:09.210Z,24.78
2019-02-04T00:02:35.887Z,24.78
2019-02-04T00:05:02.539Z,24.83
2019-02-04T00:07:29.198Z,24.83
2019-02-04T00:09:55.899Z,24.79
2019-02-04T00:12:22.570Z,24.80
2019-02-04T00:14:49.229Z,24.84
2019-02-04T00:17:16.112Z,24.82
2019-02-04T00:19:42.774Z,24.81
2019-02-04T00:22:09.427Z,24.78
2019-02-04T00:24:36.098Z,24.75
2019-02-04T00:27:02.754Z,24.79
2019-02-04T00:29:29.468Z,24.84
2019-02-04T00:31:56.120Z,24.79
2019-02-04T00:34:22.780Z,24.85
2019-02-04T00:36:49.453Z,24.74
2019-02-04T00:39:16.157Z,24.75
2019-02-04T00:41:42.855Z,24.79
2019-02-04T00:44:09.519Z,24.72
2019-02-04T00:46:36.207Z,24.80
2019-02-04T00:49:02.864Z,24.83
2019-02-04T00:51:29.574Z,24.78
2019-02-04T00:53:56.237Z,24.82
2019-02-04T00:56:22.937Z,24.84
2019-02-04T00:58:49.605Z,24.85
2019-02-04T01:01:16.265Z,24.80
2019-02-04T01:03:42.923Z,24.81
2019-02-04T01:06:09.623Z,24.80
2019-02-04T01:08:36.285Z,24.75
2019-02-04T01:11:02.955Z,24.85
2019-02-04T01:13:29.640Z,24.80
2019-02-04T01:15:56.300Z,24.80
2019-02-04T01:18:22.927Z,24.82
2019-02-04T01:20:49.607Z,24.85
2019-02-04T01:23:16.245Z,24.79
2019-02-04T01:25:42.893Z,24.80
2019-02-04T01:28:09.531Z,24.86
2019-02-04T01:30:36.212Z,24.86
2019-02-04T01:33:02.847Z,24.77
2019-02-04T01:35:29.531Z,24.89
2019-02-04T01:37:56.281Z,24.86
2019-02-04T01:40:22.929Z,24.80
2019-02-04T01:42:49.575Z,24.81
2019-02-04T01:45:16.225Z,24.82
2019-02-04T01:47:42.877Z,24.81
2019-02-04T01:50:09.576Z,24.82
2019-02-04T01:52:36.217Z,24.80
2019-02-04T01:55:02.902Z,24.83
2019-02-04T01:57:29.553Z,24.79
2019-02-04T01:59:56.364Z,24.87
2019-02-04T02:02:22.999Z,24.84
2019-02-04T02:04:49.644Z,24.84
2019-02-04T02:07:16.296Z,24.82
2019-02-04T02:09:42.955Z,24.80
2019-02-04T02:12:09.597Z,24.78
2019-02-04T02:14:36.283Z,24.81
2019-02-04T02:17:02.936Z,24.84
2019-02-04T02:19:29.677Z,24.77
2019-02-04T02:21:56.266Z,24.79
2019-02-04T02:24:22.904Z,24.80
2019-02-04T02:26:49.591Z,24.77
2019-02-04T02:29:16.238Z,24.83
2019-02-04T02:31:42.880Z,24.84
2019-02-04T02:34:09.521Z,24.81
2019-02-04T02:36:36.151Z,24.82
2019-02-04T02:39:02.799Z,24.84
2019-02-04T02:41:29.532Z,24.86
2019-02-04T02:43:56.188Z,24.76
2019-02-04T02:46:22.840Z,24.78
2019-02-04T02:48:49.533Z,24.83
2019-02-04T02:51:16.212Z,24.79
2019-02-04T02:53:42.840Z,24.83
2019-02-04T02:56:09.493Z,24.83
2019-02-04T02:58:36.139Z,24.83
2019-02-04T03:01:02.819Z,24.83
2019-02-04T03:03:29.460Z,24.81
2019-02-04T03:05:56.114Z,24.83
2019-02-04T03:08:22.753Z,24.79
2019-02-04T03:10:49.438Z,24.77
2019-02-04T03:13:16.125Z,24.82
2019-02-04T03:15:42.787Z,24.79
2019-02-04T03:18:09.450Z,24.78
2019-02-04T03:20:36.129Z,24.73
2019-02-04T03:23:02.774Z,24.80
2019-02-04T03:25:29.452Z,24.83
2019-02-04T03:27:56.094Z,24.79
2019-02-04T03:30:22.743Z,24.84
2019-02-04T03:32:49.474Z,24.80
2019-02-04T03:35:16.127Z,24.83
2019-02-04T03:37:42.865Z,24.76
2019-02-04T03:40:09.431Z,24.80
2019-02-04T03:42:36.116Z,24.79
2019-02-04T03:45:02.860Z,24.79
2019-02-04T03:47:29.510Z,24.83
2019-02-04T03:49:56.150Z,24.85
2019-02-04T03:52:22.792Z,24.85
2019-02-04T03:54:49.440Z,24.79
2019-02-04T03:57:16.119Z,24.79
2019-02-04T03:59:42.763Z,24.84
2019-02-04T04:02:09.411Z,24.80
2019-02-04T04:04:36.071Z,24.88
2019-02-04T04:07:02.747Z,24.81
2019-02-04T04:09:29.384Z,25.25
2019-02-04T04:11:56.069Z,25.70
2019-02-04T04:14:22.711Z,26.22
2019-02-04T04:16:49.348Z,26.67
2019-02-04T04:19:16.017Z,26.77
2019-02-04T04:21:42.705Z,26.28
2019-02-04T04:24:09.344Z,26.58
2019-02-04T04:26:35.985Z,26.53
2019-02-04T04:29:02.649Z,26.22
2019-02-04T04:31:29.341Z,26.11
2019-02-04T04:33:55.983Z,26.04
2019-02-04T04:36:22.620Z,25.68
2019-02-04T04:38:49.286Z,25.56
2019-02-04T04:41:15.929Z,25.51
2019-02-04T04:43:42.720Z,25.39
2019-02-04T04:46:09.294Z,25.40
2019-02-04T04:48:35.951Z,25.28
2019-02-04T04:51:02.598Z,25.18
2019-02-04T04:53:29.257Z,25.24
2019-02-04T04:55:55.898Z,25.31
2019-02-04T04:58:22.549Z,25.20
2019-02-04T05:00:49.195Z,25.23
2019-02-04T05:03:15.852Z,25.25
2019-02-04T05:05:42.484Z,26.89
2019-02-04T05:08:09.131Z,25.34
2019-02-04T05:10:39.205Z,25.34
2019-02-04T05:13:05.845Z,25.52
2019-02-04T05:15:32.514Z,25.58
2019-02-04T05:17:59.158Z,25.63
2019-02-04T05:20:25.797Z,25.53
2019-02-04T05:22:52.436Z,25.73
2019-02-04T05:25:19.077Z,25.59
2019-02-04T05:27:45.734Z,25.64
2019-02-04T05:30:12.380Z,25.70
2019-02-04T05:32:39.031Z,25.57
2019-02-04T05:35:05.682Z,25.95
2019-02-04T05:37:32.324Z,26.03
2019-02-04T05:39:58.982Z,26.02
2019-02-04T05:42:25.722Z,26.14
2019-02-04T05:44:52.377Z,26.29
2019-02-04T05:47:19.029Z,26.23
2019-02-04T05:49:45.681Z,26.22
2019-02-04T05:52:12.326Z,26.28
2019-02-04T05:54:38.991Z,26.30
2019-02-04T05:57:05.637Z,26.21
2019-02-04T05:59:32.318Z,26.18
2019-02-04T06:01:58.956Z,26.31
2019-02-04T06:04:25.671Z,26.30
2019-02-04T06:06:52.311Z,26.36
2019-02-04T06:09:18.949Z,26.32
2019-02-04T06:11:46.991Z,26.34
2019-02-04T06:14:12.253Z,26.20
2019-02-04T06:16:38.901Z,26.24
2019-02-04T06:19:05.567Z,26.24
2019-02-04T06:21:32.204Z,26.23
2019-02-04T06:23:58.869Z,26.30
2019-02-04T06:26:25.529Z,26.22
2019-02-04T06:28:52.160Z,26.17
2019-02-04T06:31:18.810Z,26.30
2019-02-04T06:33:45.556Z,26.29
2019-02-04T06:36:12.098Z,26.37
2019-02-04T06:38:38.746Z,26.43
2019-02-04T06:41:05.387Z,26.45
2019-02-04T06:43:32.044Z,26.50
2019-02-04T06:45:58.689Z,26.57
2019-02-04T06:48:25.329Z,26.63
2019-02-04T06:50:51.989Z,26.69
2019-02-04T06:53:18.628Z,26.58
2019-02-04T06:55:45.278Z,26.58
2019-02-04T06:58:11.980Z,26.37
2019-02-04T07:00:38.630Z,26.55
2019-02-04T07:03:05.330Z,26.70
2019-02-04T07:05:43.141Z,26.77
2019-02-04T07:07:58.647Z,26.84
2019-02-04T07:10:25.299Z,26.94
2019-02-04T07:12:51.954Z,26.79
2019-02-04T07:15:18.590Z,26.91
2019-02-04T07:17:45.287Z,26.81
2019-02-04T07:20:12.054Z,26.86
2019-02-04T07:22:38.683Z,26.99
2019-02-04T07:25:05.357Z,26.98
2019-02-04T07:27:32.020Z,27.10
2019-02-04T07:29:58.783Z,27.21
2019-02-04T07:32:25.458Z,27.26
2019-02-04T07:34:52.145Z,27.33
2019-02-04T07:37:18.794Z,27.43
2019-02-04T07:39:45.438Z,27.37
2019-02-04T07:42:15.194Z,27.49
2019-02-04T07:44:41.903Z,27.39
2019-02-04T07:47:08.738Z,27.36
2019-02-04T07:49:35.690Z,27.46
2019-02-04T07:52:02.046Z,27.50
2019-02-04T07:54:28.739Z,27.27
2019-02-04T07:56:55.429Z,27.40
2019-02-04T07:59:22.081Z,27.57
2019-02-04T08:01:48.789Z,27.54
2019-02-04T08:04:15.466Z,27.65
2019-02-04T08:06:42.106Z,27.78
2019-02-04T08:09:08.748Z,27.83
2019-02-04T08:11:35.429Z,27.91
2019-02-04T08:14:02.081Z,27.94
2019-02-04T08:16:28.738Z,28.06
2019-02-04T08:18:55.429Z,27.88
2019-02-04T08:21:22.536Z,27.79
2019-02-04T08:23:49.191Z,28.06
2019-02-04T08:26:15.842Z,28.08
2019-02-04T08:28:42.484Z,28.09
2019-02-04T08:31:09.198Z,28.08
2019-02-04T08:33:35.851Z,28.14
2019-02-04T08:36:02.578Z,27.98
2019-02-04T08:38:29.231Z,28.07
2019-02-04T08:40:55.881Z,28.21
2019-02-04T08:43:22.593Z,28.23
2019-02-04T08:45:49.246Z,28.20
2019-02-04T08:48:15.891Z,28.08
2019-02-04T08:50:42.567Z,28.24
2019-02-04T08:53:09.221Z,28.22
2019-02-04T08:55:35.883Z,28.18
2019-02-04T08:58:02.546Z,28.25
2019-02-04T09:00:29.229Z,28.24
2019-02-04T09:02:55.868Z,28.05
2019-02-04T09:05:22.526Z,28.16
2019-02-04T09:07:49.632Z,28.15
2019-02-04T09:10:16.280Z,28.05
2019-02-04T09:12:42.936Z,28.28
2019-02-04T09:15:09.601Z,28.31
2019-02-04T09:17:36.298Z,28.01
2019-02-04T09:20:09.823Z,28.40
2019-02-04T09:22:29.594Z,28.19
2019-02-04T09:24:56.249Z,28.26
2019-02-04T09:27:23.022Z,28.20
2019-02-04T09:29:49.683Z,28.18
2019-02-04T09:32:16.394Z,28.22
2019-02-04T09:34:43.071Z,28.19
2019-02-04T09:37:09.761Z,28.30
2019-02-04T09:39:36.538Z,28.41
2019-02-04T09:42:03.238Z,28.50
2019-02-04T09:44:29.927Z,28.30
2019-02-04T09:46:56.688Z,28.20
2019-02-04T09:49:23.383Z,28.11
2019-02-04T09:51:50.054Z,28.26
2019-02-04T09:54:16.807Z,27.99
2019-02-04T09:56:43.492Z,28.07
2019-02-04T09:59:10.158Z,28.12
2019-02-04T10:01:36.798Z,27.97
2019-02-04T10:04:03.448Z,28.37
2019-02-04T10:06:30.142Z,28.35
2019-02-04T10:08:56.897Z,28.20
2019-02-04T10:11:23.571Z,28.08
2019-02-04T10:13:50.237Z,28.20
2019-02-04T10:16:16.921Z,28.05
2019-02-04T10:18:43.567Z,28.01
2019-02-04T10:21:10.331Z,27.89
2019-02-04T10:23:36.914Z,28.08
2019-02-04T10:26:03.572Z,28.27
2019-02-04T10:28:30.204Z,28.54
2019-02-04T10:30:56.886Z,28.32
2019-02-04T10:33:23.568Z,28.23
2019-02-04T10:35:50.257Z,28.29
2019-02-04T10:38:16.918Z,28.45
2019-02-04T10:40:43.610Z,28.60
2019-02-04T10:43:10.217Z,28.34
2019-02-04T10:45:36.963Z,28.36
2019-02-04T10:48:03.617Z,28.40
2019-02-04T10:50:30.223Z,28.44
2019-02-04T10:52:56.878Z,28.30
2019-02-04T10:55:23.559Z,28.23
2019-02-04T10:57:50.253Z,28.22
2019-02-04T11:00:16.836Z,28.65
2019-02-04T11:02:43.490Z,28.34
2019-02-04T11:05:10.136Z,28.47
2019-02-04T11:07:36.815Z,28.57
2019-02-04T11:10:04.688Z,28.65
2019-02-04T11:12:30.155Z,28.81
2019-02-04T11:14:56.810Z,28.57
2019-02-04T11:17:23.508Z,28.32
2019-02-04T11:19:50.202Z,28.65
2019-02-04T11:22:16.856Z,28.74
2019-02-04T11:24:43.610Z,28.61
2019-02-04T11:27:10.368Z,28.68
2019-02-04T11:29:36.882Z,28.57
2019-02-04T11:32:03.586Z,28.53
2019-02-04T11:34:30.247Z,28.71
2019-02-04T11:36:56.881Z,29.00
2019-02-04T11:39:23.566Z,29.48
2019-02-04T11:41:50.315Z,29.17
2019-02-04T11:44:16.971Z,28.91
2019-02-04T11:46:43.778Z,29.51
2019-02-04T11:49:10.294Z,29.10
2019-02-04T11:51:36.895Z,29.17
2019-02-04T11:54:03.543Z,29.04
2019-02-04T11:56:30.235Z,29.10
2019-02-04T11:58:56.886Z,28.94
2019-02-04T12:01:23.555Z,28.99
2019-02-04T12:03:50.217Z,29.10
2019-02-04T12:06:17.572Z,29.77
2019-02-04T12:08:43.562Z,29.33
2019-02-04T12:11:10.207Z,28.97
2019-02-04T12:13:36.889Z,28.96
2019-02-04T12:16:03.540Z,29.15
2019-02-04T12:18:30.189Z,29.09
2019-02-04T12:20:56.955Z,29.43
2019-02-04T12:23:23.606Z,29.32
2019-02-04T12:25:50.264Z,29.11
2019-02-04T12:28:16.933Z,29.59
2019-02-04T12:30:43.658Z,29.39
2019-02-04T12:33:10.448Z,29.36
2019-02-04T12:35:37.088Z,29.35
2019-02-04T12:38:03.792Z,29.34
2019-02-04T12:40:30.484Z,29.21
2019-02-04T12:42:57.148Z,29.29
2019-02-04T12:45:23.837Z,28.95
2019-02-04T12:47:50.496Z,29.56
2019-02-04T12:50:17.152Z,29.01
2019-02-04T12:52:43.931Z,28.48
2019-02-04T12:55:13.633Z,29.01
2019-02-04T12:57:40.302Z,28.94
2019-02-04T13:00:06.953Z,28.52
2019-02-04T13:02:33.638Z,28.57
2019-02-04T13:05:00.429Z,28.58
2019-02-04T13:07:26.964Z,28.83
2019-02-04T13:09:53.606Z,28.96
2019-02-04T13:12:20.261Z,29.01
2019-02-04T13:14:48.229Z,28.62
2019-02-04T13:17:13.611Z,28.71
2019-02-04T13:19:40.290Z,28.81
2019-02-04T13:22:06.957Z,29.01
2019-02-04T13:24:33.608Z,29.12
2019-02-04T13:27:00.263Z,29.07
2019-02-04T13:29:26.959Z,29.12
2019-02-04T13:31:53.612Z,29.15
2019-02-04T13:34:20.276Z,29.29
2019-02-04T13:36:46.938Z,29.54
2019-02-04T13:39:15.769Z,29.51
2019-02-04T13:41:42.463Z,30.01
2019-02-04T13:44:09.142Z,30.24
2019-02-04T13:46:35.835Z,29.80
2019-02-04T13:49:02.584Z,30.31
2019-02-04T13:51:30.451Z,30.05
2019-02-04T13:53:57.283Z,29.85
2019-02-04T13:56:22.644Z,30.14
2019-02-04T13:58:49.299Z,30.44
2019-02-04T14:01:15.949Z,30.13
2019-02-04T14:03:42.593Z,30.13
2019-02-04T14:06:09.237Z,30.26
2019-02-04T14:08:35.889Z,30.55
2019-02-04T14:11:02.547Z,30.53
2019-02-04T14:13:29.182Z,30.30
2019-02-04T14:15:55.880Z,30.79
2019-02-04T14:18:26.319Z,30.60
2019-02-04T14:20:49.382Z,30.66
2019-02-04T14:23:16.089Z,30.64
2019-02-04T14:25:42.772Z,30.71
2019-02-04T14:28:09.361Z,30.61
2019-02-04T14:30:36.012Z,30.58
2019-02-04T14:33:02.776Z,30.40
2019-02-04T14:35:29.419Z,30.12
2019-02-04T14:37:56.083Z,30.44
2019-02-04T14:40:22.722Z,30.64
2019-02-04T14:42:49.393Z,30.58
2019-02-04T14:45:16.062Z,30.21
2019-02-04T14:47:42.696Z,30.56
2019-02-04T14:50:09.401Z,30.41
2019-02-04T14:52:36.058Z,30.73
2019-02-04T14:55:02.706Z,30.87
2019-02-04T14:57:29.406Z,30.84
2019-02-04T14:59:56.096Z,30.83
2019-02-04T15:02:22.768Z,30.49
2019-02-04T15:04:49.594Z,30.57
2019-02-04T15:07:16.248Z,30.79
2019-02-04T15:09:42.932Z,30.87
2019-02-04T15:12:09.613Z,30.86
2019-02-04T15:14:36.697Z,30.68
2019-02-04T15:17:03.335Z,30.82
2019-02-04T15:19:30.021Z,30.94
2019-02-04T15:21:56.687Z,30.90
2019-02-04T15:24:23.342Z,30.99
2019-02-04T15:26:50.146Z,30.66
2019-02-04T15:29:16.782Z,30.97
2019-02-04T15:31:43.459Z,30.98
2019-02-04T15:34:10.103Z,31.19
2019-02-04T15:36:36.851Z,31.12
2019-02-04T15:39:03.503Z,31.08
2019-02-04T15:41:32.793Z,31.27
2019-02-04T15:43:56.889Z,31.38
2019-02-04T15:46:23.648Z,31.48
2019-02-04T15:48:50.332Z,31.43
2019-02-04T15:51:16.982Z,31.43
2019-02-04T15:53:43.670Z,31.36
2019-02-04T15:56:10.486Z,31.41
2019-02-04T15:58:37.132Z,31.52
2019-02-04T16:01:04.802Z,31.57
2019-02-04T16:03:30.433Z,31.77
2019-02-04T16:05:57.087Z,31.49
2019-02-04T16:08:23.740Z,31.57
2019-02-04T16:10:50.433Z,31.79
2019-02-04T16:13:17.080Z,31.86
2019-02-04T16:15:43.786Z,32.00
2019-02-04T16:18:10.429Z,32.09
2019-02-04T16:20:37.191Z,32.05
2019-02-04T16:23:03.904Z,32.00
2019-02-04T16:25:30.544Z,32.10
2019-02-04T16:27:57.187Z,32.04
2019-02-04T16:30:23.956Z,32.17
2019-02-04T16:32:52.843Z,32.07
2019-02-04T16:35:17.278Z,32.15
2019-02-04T16:37:43.932Z,32.13
2019-02-04T16:40:10.620Z,32.14
2019-02-04T16:42:37.257Z,32.19
2019-02-04T16:45:03.907Z,32.16
2019-02-04T16:47:30.569Z,32.05
2019-02-04T16:49:57.205Z,32.21
2019-02-04T16:52:23.845Z,31.82
2019-02-04T16:54:50.489Z,32.12
2019-02-04T16:57:17.137Z,32.14
2019-02-04T16:59:43.878Z,32.14
2019-02-04T17:02:10.556Z,32.16
2019-02-04T17:04:37.232Z,32.20
2019-02-04T17:07:03.915Z,32.21
2019-02-04T17:09:30.553Z,32.21
2019-02-04T17:11:57.196Z,32.19
2019-02-04T17:14:23.849Z,32.24
2019-02-04T17:16:50.495Z,32.18
2019-02-04T17:19:17.137Z,32.18
2019-02-04T17:21:43.773Z,32.19
2019-02-04T17:24:10.431Z,32.07
2019-02-04T17:26:37.077Z,32.11
2019-02-04T17:29:03.793Z,32.17
2019-02-04T17:31:30.453Z,32.10
2019-02-04T17:33:57.132Z,32.11
2019-02-04T17:36:23.773Z,32.07
2019-02-04T17:38:50.465Z,31.98
2019-02-04T17:41:17.102Z,32.09
2019-02-04T17:43:43.786Z,32.15
2019-02-04T17:46:10.424Z,32.18
2019-02-04T17:48:37.070Z,32.14
2019-02-04T17:51:03.712Z,32.10
2019-02-04T17:53:34.277Z,32.14
2019-02-04T17:55:57.072Z,32.07
2019-02-04T17:58:23.716Z,32.11
2019-02-04T18:00:50.403Z,32.03
2019-02-04T18:03:17.082Z,32.00
2019-02-04T18:05:43.733Z,32.00
2019-02-04T18:08:10.373Z,31.92
2019-02-04T18:10:37.023Z,31.95
2019-02-04T18:13:03.665Z,31.94
2019-02-04T18:15:30.302Z,31.89
2019-02-04T18:17:56.964Z,31.86
2019-02-04T18:20:23.600Z,31.89
2019-02-04T18:22:50.311Z,31.93
2019-02-04T18:25:16.949Z,31.91
2019-02-04T18:27:43.618Z,31.91
2019-02-04T18:30:10.256Z,31.93
2019-02-04T18:32:36.898Z,31.86
2019-02-04T18:35:03.590Z,31.82
2019-02-04T18:37:30.281Z,31.77
2019-02-04T18:39:56.917Z,31.83
2019-02-04T18:42:23.552Z,31.83
2019-02-04T18:44:50.292Z,31.87
2019-02-04T18:47:16.880Z,31.73
2019-02-04T18:49:43.544Z,31.80
2019-02-04T18:52:10.226Z,31.83
2019-02-04T18:54:36.868Z,31.73
2019-02-04T18:57:03.511Z,31.77
2019-02-04T18:59:30.165Z,31.85
2019-02-04T19:01:56.853Z,31.75
2019-02-04T19:04:23.491Z,31.83
2019-02-04T19:06:50.125Z,31.65
2019-02-04T19:09:16.811Z,31.61
2019-02-04T19:11:43.487Z,31.75
2019-02-04T19:14:10.124Z,31.73
2019-02-04T19:16:36.793Z,31.72
2019-02-04T19:19:03.429Z,31.74
2019-02-04T19:21:30.116Z,31.73
2019-02-04T19:23:56.766Z,31.70
2019-02-04T19:26:23.408Z,31.73
2019-02-04T19:28:50.991Z,31.70
2019-02-04T19:31:16.776Z,31.72
2019-02-04T19:33:43.461Z,31.56
2019-02-04T19:36:11.376Z,31.59
2019-02-04T19:38:36.756Z,31.65
2019-02-04T19:41:03.399Z,31.60
2019-02-04T19:43:30.042Z,31.56
2019-02-04T19:45:56.685Z,31.65
2019-02-04T19:48:23.341Z,31.50
2019-02-04T19:50:49.984Z,31.52
2019-02-04T19:53:16.662Z,31.52
2019-02-04T19:55:43.340Z,31.49
2019-02-04T19:58:09.993Z,31.42
2019-02-04T20:00:36.644Z,31.43
2019-02-04T20:03:03.287Z,31.40
2019-02-04T20:05:29.943Z,31.41
2019-02-04T20:07:56.607Z,31.40
2019-02-04T20:10:23.253Z,31.39
2019-02-04T20:12:49.903Z,31.37
2019-02-04T20:15:16.597Z,31.33
2019-02-04T20:17:43.239Z,31.31
2019-02-04T20:20:09.898Z,31.34
2019-02-04T20:22:36.577Z,31.33
2019-02-04T20:25:03.219Z,31.29
2019-02-04T20:27:29.902Z,31.29
2019-02-04T20:29:56.555Z,31.23
2019-02-04T20:32:23.234Z,31.28
2019-02-04T20:34:49.871Z,31.26
2019-02-04T20:37:16.511Z,31.24
2019-02-04T20:39:43.156Z,31.14
2019-02-04T20:42:09.842Z,31.15
2019-02-04T20:44:36.484Z,31.13
2019-02-04T20:47:03.122Z,31.15
2019-02-04T20:49:29.776Z,31.18
2019-02-04T20:51:56.430Z,31.16
2019-02-04T20:54:23.111Z,31.13
2019-02-04T20:56:49.766Z,31.05
2019-02-04T20:59:16.412Z,31.10
2019-02-04T21:01:43.047Z,31.12
2019-02-04T21:04:09.727Z,31.07
2019-02-04T21:06:36.403Z,30.98
2019-02-04T21:09:03.054Z,31.01
2019-02-04T21:11:29.697Z,31.05
2019-02-04T21:13:56.342Z,30.96
2019-02-04T21:16:22.990Z,31.01
2019-02-04T21:18:49.719Z,30.99
2019-02-04T21:21:16.357Z,30.99
2019-02-04T21:23:43.009Z,30.95
2019-02-04T21:26:09.652Z,30.95
2019-02-04T21:28:37.549Z,30.91
2019-02-04T21:31:02.970Z,30.90
2019-02-04T21:33:29.613Z,30.89
2019-02-04T21:35:56.298Z,30.83
2019-02-04T21:38:25.584Z,30.86
2019-02-04T21:40:49.613Z,30.85
2019-02-04T21:43:16.250Z,30.78
2019-02-04T21:45:42.895Z,30.85
2019-02-04T21:48:09.666Z,30.80
2019-02-04T21:50:36.209Z,30.85
2019-02-04T21:53:02.852Z,30.71
2019-02-04T21:55:29.495Z,30.72
2019-02-04T21:57:56.149Z,30.67
2019-02-04T22:00:22.827Z,30.75
2019-02-04T22:02:49.476Z,30.78
2019-02-04T22:05:16.146Z,30.71
2019-02-04T22:07:42.790Z,30.68
2019-02-04T22:10:09.429Z,30.64
2019-02-04T22:12:36.113Z,30.67
2019-02-04T22:15:02.762Z,30.58
2019-02-04T22:17:29.470Z,30.55
2019-02-04T22:19:56.131Z,30.55
2019-02-04T22:22:22.778Z,30.64
2019-02-04T22:24:49.462Z,30.64
2019-02-04T22:27:16.149Z,30.57
2019-02-04T22:29:42.794Z,30.63
2019-02-04T22:32:09.437Z,30.57
2019-02-04T22:34:36.097Z,30.48
2019-02-04T22:37:02.737Z,30.53
2019-02-04T22:39:29.387Z,30.47
2019-02-04T22:41:56.031Z,30.57
2019-02-04T22:44:22.730Z,30.52
2019-02-04T22:46:49.423Z,30.49
2019-02-04T22:49:16.097Z,30.54
2019-02-04T22:51:42.734Z,30.48
2019-02-04T22:54:09.463Z,30.49
2019-02-04T22:56:36.146Z,30.48
2019-02-04T22:59:02.789Z,30.45
2019-02-04T23:01:29.479Z,30.48
2019-02-04T23:03:56.206Z,30.31
2019-02-04T23:06:22.783Z,30.42
2019-02-04T23:08:49.424Z,30.41
2019-02-04T23:11:16.065Z,30.36
2019-02-04T23:13:42.716Z,30.40
2019-02-04T23:16:09.375Z,30.34
2019-02-04T23:18:36.091Z,30.36
2019-02-04T23:21:02.699Z,30.35
2019-02-04T23:23:29.381Z,30.32
2019-02-04T23:25:56.025Z,30.29
2019-02-04T23:28:22.661Z,30.29
2019-02-04T23:30:49.348Z,30.31
2019-02-04T23:33:15.985Z,30.36
2019-02-04T23:35:42.627Z,30.31
2019-02-04T23:38:09.278Z,30.34
2019-02-04T23:40:35.929Z,30.26
2019-02-04T23:43:02.569Z,30.23
2019-02-04T23:45:29.220Z,30.22
2019-02-04T23:47:55.859Z,30.17
2019-02-04T23:50:22.598Z,30.22
2019-02-04T23:52:49.240Z,30.26
2019-02-04T23:55:15.877Z,30.27
2019-02-04T23:57:42.525Z,30.23
